Skip Navigation Links Skip Navigation Links

Current Weather

Person County, Roxboro, N.C.

For information only: do not use for flight planning or navigation.
Latest weather
Observation time Thursday, August 16, 2018 2:10 AM EDT
Local time Thursday, August 16, 2018 2:29 AM EDT
Flight conditions Instrument Meteorological Conditions
Winds
Wind speed calm
Visibility 1.25 mi.
Present weather mist
Sky condition
Ceiling 700 ft. indefinite
Cloud layer vertical visibility 700 ft.
Temperature 66°F
Dewpoint 66°F
Altimeter 30.13 in.Hg
Derived measurements
Relative humidity 100%
Density altitude 1138 ft.
Remarks
Fully automated report.
Automated weather observing station with precipitation discriminator.
Visibility.
METAR KTDF 160610Z AUTO 00000KT 1 1/4SM BR VV007 19/19 A3013 RMK AO2 VIS 1/2V5

Settings

Location code

InnerDrive.Weather 4.0.6770.0 Release CLR 4.0.30319.42000
Copyright ©2018 Inner Drive Technology. All rights reserved. Portions Copyright ©1986-2018 David Braverman.

Find weather

Site navigation


Skip Navigation Links

Place info

Page info

PayPal - The safer, easier way to pay online!

Return home.

Copyright ©2018 Inner Drive Technology. Purveyors of fine, hand-crafted computer software. Page printed 2018-08-16T06:29:09 UTC.